Time;durP1;ratioP1;P1;durP2;ratioP2;P2;SDS_P1;SDS_P2;PMS_P1;PMS_P2;Temp;Humidity;BMP_temperature;BMP_pressure;BME280_temperature;BME280_humidity;BME280_pressure;Samples;Min_cycle;Max_cycle;Signal;HPM_P1;HPM_P2
2022/09/30 00:02:19;;;;;;;11.20;4.87;;;;;;;17.28;65.78;97791.25;4470047;32;20240;-83
2022/09/30 00:04:44;;;;;;;10.25;4.07;;;;;;;17.29;65.79;97795.59;4484761;32;20156;-83
2022/09/30 00:07:10;;;;;;;11.55;3.90;;;;;;;17.36;65.63;97788.66;4483865;32;20104;-83
2022/09/30 00:09:35;;;;;;;9.43;3.60;;;;;;;17.40;65.70;97797.19;4484589;32;20111;-81
2022/09/30 00:12:01;;;;;;;9.40;3.95;;;;;;;17.34;65.98;97803.12;4484540;32;20100;-82
2022/09/30 00:14:27;;;;;;;11.80;4.85;;;;;;;17.33;66.14;97798.81;4470580;32;20092;-82
2022/09/30 00:16:52;;;;;;;13.70;5.32;;;;;;;17.35;66.14;97791.50;4485102;32;20140;-83
2022/09/30 00:19:18;;;;;;;13.55;4.65;;;;;;;17.38;66.04;97789.34;4484552;32;20124;-83
2022/09/30 00:21:43;;;;;;;14.30;5.40;;;;;;;17.34;66.14;97793.31;4484174;32;20387;-81
2022/09/30 00:24:09;;;;;;;30.52;7.40;;;;;;;17.38;66.02;97784.03;4471102;32;20116;-82
2022/09/30 00:26:35;;;;;;;13.20;7.18;;;;;;;17.36;65.94;97779.84;4469905;32;20089;-81
2022/09/30 00:29:01;;;;;;;46.45;8.68;;;;;;;17.34;65.85;97776.50;4484504;32;20496;-82
2022/09/30 00:31:29;;;;;;;66.75;11.57;;;;;;;17.34;65.69;97777.34;4484999;32;20105;-82
2022/09/30 00:34:07;;;;;;;80.18;12.60;;;;;;;17.16;65.88;97777.31;4484367;32;20108;-82
2022/09/30 00:36:52;;;;;;;15.40;8.43;;;;;;;16.92;66.34;97785.03;4484640;32;20080;-83
2022/09/30 00:39:23;;;;;;;16.02;8.43;;;;;;;17.10;65.90;97785.91;4470907;32;20069;-82
2022/09/30 00:41:53;;;;;;;25.15;9.30;;;;;;;16.97;66.39;97775.63;4471454;32;20164;-83
2022/09/30 00:44:44;;;;;;;17.45;8.50;;;;;;;17.05;66.00;97773.03;4469396;32;20093;-82
2022/09/30 00:47:31;;;;;;;14.80;8.20;;;;;;;17.07;65.96;97770.25;4484401;32;20088;-81
2022/09/30 00:50:01;;;;;;;14.38;7.53;;;;;;;17.14;65.88;97773.16;4484897;32;20093;-84
2022/09/30 00:52:26;;;;;;;12.70;6.82;;;;;;;17.05;65.99;97765.06;4467394;32;20766;-83
2022/09/30 00:54:53;;;;;;;14.35;7.75;;;;;;;17.11;65.91;97763.62;4467089;32;20093;-82
2022/09/30 00:57:19;;;;;;;13.85;6.70;;;;;;;16.86;66.48;97762.50;4467589;32;20105;-82
2022/09/30 00:59:46;;;;;;;14.00;7.32;;;;;;;16.97;66.32;97764.97;4467621;32;20443;-82
2022/09/30 01:02:13;;;;;;;15.57;7.45;;;;;;;16.79;66.94;97758.75;4468183;32;20108;-82
2022/09/30 01:04:40;;;;;;;15.38;7.32;;;;;;;16.85;66.78;97759.03;4454062;32;20583;-83
2022/09/30 01:07:07;;;;;;;17.05;7.47;;;;;;;17.00;66.53;97754.03;4454724;32;20468;-82
2022/09/30 01:09:34;;;;;;;14.23;6.60;;;;;;;17.05;66.44;97749.09;4466941;32;20140;-82
2022/09/30 01:12:04;;;;;;;13.93;6.93;;;;;;;17.10;66.46;97754.81;4468388;32;20116;-82
2022/09/30 01:14:29;;;;;;;14.38;7.45;;;;;;;17.17;66.31;97754.19;4467598;32;20174;-82
2022/09/30 01:17:01;;;;;;;14.70;6.68;;;;;;;17.13;66.24;97758.16;4467424;32;20092;-82
2022/09/30 01:19:38;;;;;;;13.35;6.30;;;;;;;17.14;66.26;97762.50;4468145;32;20069;-82
2022/09/30 01:22:31;;;;;;;12.25;5.90;;;;;;;17.15;66.20;97767.66;4468465;32;20101;-82
2022/09/30 01:25:08;;;;;;;10.15;3.87;;;;;;;17.20;66.17;97768.06;4468714;32;20084;-82
2022/09/30 01:27:43;;;;;;;10.15;4.00;;;;;;;17.17;66.31;97767.50;4468715;32;20139;-82
2022/09/30 01:30:15;;;;;;;10.15;3.50;;;;;;;17.16;66.34;97764.03;4468970;32;20089;-82
2022/09/30 01:32:41;;;;;;;10.40;3.58;;;;;;;17.22;66.29;97766.06;4468447;32;20155;-82
2022/09/30 01:35:41;;;;;;;8.85;2.97;;;;;;;17.27;66.18;97761.16;4468872;32;20097;-82
2022/09/30 01:38:27;;;;;;;;;;;;;;;17.26;66.25;97758.63;4466802;32;20115;-82
2022/09/30 01:40:58;;;;;;;7.45;2.30;;;;;;;17.35;66.03;97765.72;4467748;32;19987;-83
2022/09/30 01:43:35;;;;;;;6.47;2.20;;;;;;;17.32;66.08;97771.31;4467218;32;20105;-82
2022/09/30 01:46:09;;;;;;;5.32;1.80;;;;;;;17.31;66.15;97782.97;4466412;32;20508;-83
2022/09/30 01:48:43;;;;;;;4.50;1.62;;;;;;;17.34;66.17;97782.66;4466958;32;20089;-83
2022/09/30 01:51:24;;;;;;;5.90;1.62;;;;;;;17.32;66.23;97774.00;4470027;32;20093;-83
2022/09/30 01:54:05;;;;;;;6.15;1.80;;;;;;;17.34;66.17;97763.19;4470045;32;20108;-82
2022/09/30 01:56:42;;;;;;;5.75;1.73;;;;;;;17.36;66.02;97759.38;4468593;32;20100;-83
2022/09/30 01:59:08;;;;;;;7.00;2.23;;;;;;;17.41;65.92;97741.12;4469297;32;20084;-83
2022/09/30 02:01:41;;;;;;;7.28;2.65;;;;;;;17.41;65.91;97737.66;4482848;32;20106;-82
2022/09/30 02:04:12;;;;;;;7.80;2.87;;;;;;;17.40;65.96;97750.13;4470563;32;20448;-82
2022/09/30 02:06:41;;;;;;;10.20;2.78;;;;;;;17.28;66.06;97743.34;4469272;32;20092;-83
2022/09/30 02:09:14;;;;;;;8.25;2.80;;;;;;;17.36;65.90;97743.41;4470604;32;20106;-82
2022/09/30 02:11:41;;;;;;;7.75;2.90;;;;;;;17.36;65.91;97738.09;4471153;32;20221;-82
2022/09/30 02:14:26;;;;;;;9.02;3.58;;;;;;;17.38;65.90;97733.44;4471279;32;20543;-82
2022/09/30 02:17:01;;;;;;;10.50;3.87;;;;;;;17.37;66.00;97730.97;4473498;32;20088;-81
2022/09/30 02:19:35;;;;;;;9.35;4.07;;;;;;;17.39;66.02;97731.63;4488312;32;20084;-81
2022/09/30 02:22:13;;;;;;;11.27;4.60;;;;;;;17.44;65.90;97724.88;4461049;32;20524;-80
2022/09/30 02:24:42;;;;;;;9.63;4.10;;;;;;;17.23;66.37;97733.16;4474083;32;20452;-80
2022/09/30 02:27:15;;;;;;;12.07;4.40;;;;;;;17.33;66.15;97733.09;4488367;32;20119;-81
2022/09/30 02:29:44;;;;;;;10.63;4.87;;;;;;;17.39;66.02;97732.47;4488365;32;20111;-81
2022/09/30 02:32:19;;;;;;;10.52;4.60;;;;;;;17.33;66.22;97742.91;4488279;32;20089;-81
2022/09/30 02:34:49;;;;;;;10.65;4.47;;;;;;;17.38;66.15;97760.06;4473961;32;20119;-80
2022/09/30 02:37:30;;;;;;;10.98;4.62;;;;;;;17.38;66.22;97768.06;4474267;32;20161;-80
2022/09/30 02:40:09;;;;;;;9.90;4.30;;;;;;;17.44;66.28;97774.59;4473736;32;20088;-80
2022/09/30 02:42:36;;;;;;;10.82;5.12;;;;;;;17.44;66.28;97755.97;4473861;32;20132;-81
2022/09/30 02:45:09;;;;;;;10.77;5.12;;;;;;;17.48;66.26;97746.69;4473644;32;20100;-82
2022/09/30 02:47:51;;;;;;;11.68;5.45;;;;;;;17.46;66.41;97733.53;4488062;32;20118;-82
2022/09/30 02:50:26;;;;;;;11.50;5.60;;;;;;;17.39;66.56;97716.50;4488086;32;20111;-79
2022/09/30 02:53:27;;;;;;;11.35;5.25;;;;;;;17.44;66.35;97722.22;4487938;32;20088;-81
2022/09/30 02:56:07;;;;;;;11.98;5.65;;;;;;;17.33;66.43;97724.28;4487422;32;20144;-80
2022/09/30 02:58:35;;;;;;;12.57;5.53;;;;;;;17.16;67.05;97717.94;4487956;32;20161;-81
2022/09/30 03:01:00;;;;;;;12.95;6.07;;;;;;;16.95;67.81;97729.69;4473974;32;20156;-81
2022/09/30 03:03:38;;;;;;;11.98;6.03;;;;;;;16.82;68.44;97730.06;4473517;32;20097;-81
2022/09/30 03:06:03;;;;;;;12.20;5.93;;;;;;;16.75;69.02;97722.81;4487872;32;20148;-81
2022/09/30 03:08:29;;;;;;;13.20;6.07;;;;;;;16.97;68.10;97710.94;4487805;32;20474;-81
2022/09/30 03:10:54;;;;;;;12.07;6.07;;;;;;;16.69;69.32;97719.75;4473483;32;20137;-81
2022/09/30 03:13:48;;;;;;;12.88;5.65;;;;;;;16.97;68.18;97713.59;4487760;32;20394;-80
2022/09/30 03:16:28;;;;;;;13.07;6.50;;;;;;;17.03;68.07;97711.16;4487773;32;20694;-80
2022/09/30 03:19:17;;;;;;;12.07;5.45;;;;;;;16.95;68.31;97703.09;4473461;32;20122;-80
2022/09/30 03:22:04;;;;;;;11.85;5.80;;;;;;;16.58;69.96;97706.66;4487618;32;20110;-79
2022/09/30 03:24:42;;;;;;;12.18;5.78;;;;;;;16.88;68.75;97705.53;4487733;32;20072;-79
2022/09/30 03:27:14;;;;;;;11.88;5.15;;;;;;;16.99;68.25;97706.31;4473452;32;20100;-79
2022/09/30 03:29:57;;;;;;;10.75;5.45;;;;;;;17.03;68.14;97718.31;4487763;32;20096;-79
2022/09/30 03:33:00;;;;;;;11.63;5.93;;;;;;;17.16;67.95;97731.25;4487634;32;20092;-79
2022/09/30 03:35:37;;;;;;;11.68;5.72;;;;;;;17.21;67.93;97728.97;4473457;32;20115;-79
2022/09/30 03:38:13;;;;;;;13.93;5.95;;;;;;;17.21;67.85;97740.47;4460212;32;20104;-79
2022/09/30 03:40:52;;;;;;;13.75;6.50;;;;;;;17.29;67.78;97742.38;4473506;32;20108;-80
2022/09/30 03:43:17;;;;;;;;;;;;;;;17.33;67.60;97748.22;4473579;32;20092;-80
2022/09/30 03:46:05;;;;;;;13.60;6.45;;;;;;;17.42;67.30;97742.81;4487646;32;19971;-80
2022/09/30 03:48:32;;;;;;;12.55;6.00;;;;;;;17.35;67.36;97727.63;4487627;32;20701;-81
2022/09/30 03:50:58;;;;;;;12.85;6.78;;;;;;;17.14;67.80;97723.41;4472507;32;20104;-79
2022/09/30 03:53:27;;;;;;;13.88;6.65;;;;;;;17.00;68.39;97737.25;4466249;32;20085;-79
2022/09/30 03:55:53;;;;;;;13.48;6.80;;;;;;;17.22;67.64;97739.47;4471700;32;20076;-78
2022/09/30 03:58:22;;;;;;;12.70;6.12;;;;;;;17.26;67.38;97738.16;4471540;32;20146;-82
2022/09/30 04:00:49;;;;;;;13.00;6.15;;;;;;;17.32;67.35;97730.56;4471855;32;20549;-81
2022/09/30 04:03:15;;;;;;;;;;;;;;;17.35;67.31;97724.94;4471959;32;20093;-79
2022/09/30 04:05:41;;;;;;;12.75;5.95;;;;;;;17.40;67.13;97720.84;4457638;32;19983;-79
2022/09/30 04:08:07;;;;;;;13.20;5.55;;;;;;;17.25;67.41;97719.72;4471672;32;20097;-79
2022/09/30 04:10:32;;;;;;;14.02;6.82;;;;;;;17.25;67.39;97733.84;4457887;32;20131;-80
2022/09/30 04:12:58;;;;;;;12.32;5.75;;;;;;;16.93;68.63;97728.19;4471866;32;20142;-79
2022/09/30 04:15:23;;;;;;;12.43;6.15;;;;;;;17.07;68.01;97732.97;4479649;32;20080;-79
2022/09/30 04:17:49;;;;;;;13.62;6.45;;;;;;;17.17;67.59;97735.56;4475345;32;20508;-78
2022/09/30 04:20:14;;;;;;;12.93;6.32;;;;;;;17.15;67.71;97738.37;4471850;32;20139;-79
2022/09/30 04:22:40;;;;;;;12.13;5.95;;;;;;;17.18;67.69;97743.41;4444435;32;20146;-80
2022/09/30 04:25:06;;;;;;;11.85;5.75;;;;;;;17.28;67.50;97744.16;4457639;32;20115;-80
2022/09/30 04:27:31;;;;;;;13.10;6.15;;;;;;;17.38;67.31;97732.63;4457647;32;20117;-81
2022/09/30 04:29:56;;;;;;;11.82;5.93;;;;;;;17.35;67.52;97727.63;4457673;32;20117;-82
2022/09/30 04:32:22;;;;;;;13.00;6.15;;;;;;;17.40;67.43;97738.63;4471181;32;20337;-82
2022/09/30 04:34:47;;;;;;;12.23;6.30;;;;;;;17.44;67.37;97732.84;4473399;32;20072;-81
2022/09/30 04:37:13;;;;;;;13.32;6.90;;;;;;;17.44;67.44;97740.00;4473169;32;20104;-83
2022/09/30 04:39:39;;;;;;;12.90;6.53;;;;;;;17.48;67.43;97742.22;4487385;32;20348;-82
2022/09/30 04:42:05;;;;;;;14.13;6.95;;;;;;;17.51;67.31;97743.72;4487473;32;20096;-83
2022/09/30 04:44:31;;;;;;;14.40;7.20;;;;;;;17.48;67.39;97744.00;4487338;32;20084;-82
2022/09/30 04:46:56;;;;;;;14.63;7.55;;;;;;;17.51;67.34;97748.22;4471394;32;20139;-82
2022/09/30 04:49:22;;;;;;;15.38;7.87;;;;;;;17.56;67.22;97746.78;4471461;32;20096;-82
2022/09/30 04:51:48;;;;;;;16.62;7.37;;;;;;;17.57;67.13;97751.09;4471497;32;20388;-82
2022/09/30 04:54:15;;;;;;;16.23;8.20;;;;;;;17.61;67.09;97756.94;4457167;32;20162;-82
2022/09/30 04:56:41;;;;;;;13.98;7.50;;;;;;;17.48;67.41;97760.84;4471466;32;20100;-84
2022/09/30 04:59:06;;;;;;;15.20;7.62;;;;;;;17.59;67.17;97774.91;4457137;32;20140;-82
2022/09/30 05:01:32;;;;;;;14.80;7.75;;;;;;;17.62;67.10;97772.78;4471331;32;20144;-85
2022/09/30 05:03:57;;;;;;;15.35;8.00;;;;;;;17.66;67.03;97774.16;4471285;32;20142;-86
2022/09/30 05:06:22;;;;;;;16.42;7.72;;;;;;;17.64;67.11;97778.78;4471390;32;20113;-85
2022/09/30 05:08:48;;;;;;;15.80;8.60;;;;;;;17.72;67.02;97778.03;4457018;32;20177;-82
2022/09/30 05:11:16;;;;;;;16.20;8.20;;;;;;;17.68;67.14;97780.16;4471366;32;20080;-86
2022/09/30 05:13:42;;;;;;;15.32;7.65;;;;;;;17.74;67.01;97775.22;4471184;32;20444;-85
2022/09/30 05:16:08;;;;;;;15.32;7.45;;;;;;;17.69;67.13;97771.19;4471538;32;20086;-86
2022/09/30 05:18:34;;;;;;;15.75;7.90;;;;;;;17.70;66.99;97774.69;4471382;32;20388;-85
2022/09/30 05:21:00;;;;;;;16.52;8.57;;;;;;;17.69;67.01;97781.84;4457050;32;20088;-85
2022/09/30 05:23:28;;;;;;;15.05;7.72;;;;;;;17.69;67.14;97780.97;4471010;32;20085;-84
2022/09/30 05:25:54;;;;;;;15.30;8.20;;;;;;;17.68;67.28;97782.00;4457046;32;20104;-82
2022/09/30 05:28:20;;;;;;;14.80;8.02;;;;;;;17.74;67.20;97781.38;4471176;32;20134;-84
2022/09/30 05:30:45;;;;;;;13.95;7.35;;;;;;;17.76;67.10;97786.53;4456859;32;20085;-86
2022/09/30 05:33:12;;;;;;;15.70;8.18;;;;;;;17.82;66.84;97781.44;4471096;32;20097;-86
2022/09/30 05:35:40;;;;;;;14.63;7.80;;;;;;;17.85;66.80;97788.31;4456940;32;20169;-86
2022/09/30 05:38:06;;;;;;;15.13;8.02;;;;;;;17.73;67.11;97782.37;4456971;32;20498;-89
2022/09/30 05:40:31;;;;;;;15.80;8.60;;;;;;;17.79;66.97;97786.22;4456731;32;20088;-88
2022/09/30 05:42:58;;;;;;;15.13;7.93;;;;;;;17.80;67.01;97787.91;4469640;32;20115;-86
2022/09/30 05:45:24;;;;;;;16.73;8.23;;;;;;;17.80;66.95;97794.06;4456704;32;20104;-86
2022/09/30 05:47:53;;;;;;;15.45;8.25;;;;;;;17.83;66.93;97798.28;4456593;32;20131;-88
2022/09/30 05:50:19;;;;;;;16.27;8.75;;;;;;;17.82;66.90;97793.91;4470845;32;20119;-89
2022/09/30 05:52:45;;;;;;;14.75;7.87;;;;;;;17.79;66.89;97800.41;4469814;32;20097;-89
2022/09/30 05:55:10;;;;;;;14.40;7.50;;;;;;;17.85;66.83;97801.66;4470724;32;20126;-90
2022/09/30 05:57:35;;;;;;;14.25;7.60;;;;;;;17.85;66.78;97802.47;4470518;32;20361;-89
2022/09/30 06:00:01;;;;;;;15.10;7.53;;;;;;;17.87;66.74;97791.66;4470613;32;20089;-89
2022/09/30 06:02:26;;;;;;;14.05;7.22;;;;;;;17.85;66.78;97793.66;4470655;32;20429;-86
2022/09/30 06:04:52;;;;;;;13.18;6.87;;;;;;;17.85;66.74;97791.00;4470609;32;20457;-88
2022/09/30 06:07:17;;;;;;;13.02;7.18;;;;;;;17.84;66.73;97790.13;4479724;32;20096;-87
2022/09/30 06:09:42;;;;;;;13.02;6.87;;;;;;;17.87;66.73;97794.34;4486254;32;20110;-89
2022/09/30 06:12:08;;;;;;;15.02;7.65;;;;;;;17.87;66.80;97797.81;4485596;32;20498;-87
2022/09/30 06:14:34;;;;;;;13.85;6.80;;;;;;;17.86;66.90;97796.13;4486087;32;20157;-84
2022/09/30 06:17:00;;;;;;;13.82;6.90;;;;;;;17.94;66.81;97800.69;4486021;32;20166;-83
2022/09/30 06:19:29;;;;;;;13.90;7.20;;;;;;;17.92;66.81;97802.69;4471782;32;20145;-81
2022/09/30 06:21:59;;;;;;;13.55;7.35;;;;;;;17.92;66.85;97805.34;4486018;32;20081;-85
2022/09/30 06:24:24;;;;;;;13.55;7.20;;;;;;;17.89;66.88;97800.34;4485934;32;20156;-82
2022/09/30 06:26:50;;;;;;;13.68;6.85;;;;;;;17.89;66.81;97803.00;4486030;32;20089;-79
2022/09/30 06:29:16;;;;;;;12.85;6.78;;;;;;;17.90;66.82;97806.50;4485680;32;20080;-82
2022/09/30 06:31:41;;;;;;;11.73;6.22;;;;;;;17.92;66.75;97807.19;4471676;32;20234;-81
2022/09/30 06:34:07;;;;;;;15.73;6.65;;;;;;;17.91;66.74;97808.19;4471549;32;20165;-81
2022/09/30 06:36:33;;;;;;;17.50;6.87;;;;;;;17.90;66.89;97796.69;4485934;32;20088;-83
2022/09/30 06:39:02;;;;;;;15.05;7.18;;;;;;;17.90;67.01;97807.34;4471406;32;20133;-83
2022/09/30 06:41:28;;;;;;;13.57;6.62;;;;;;;17.88;67.14;97810.16;4471518;32;20093;-84
2022/09/30 06:43:55;;;;;;;11.98;5.85;;;;;;;17.92;67.15;97810.69;4485718;32;20122;-84
2022/09/30 06:46:22;;;;;;;12.60;6.03;;;;;;;17.92;67.22;97808.00;4485701;32;20123;-84
2022/09/30 06:48:57;;;;;;;12.65;5.90;;;;;;;17.93;67.23;97808.88;4471802;32;20081;-84
2022/09/30 06:51:25;;;;;;;11.65;5.53;;;;;;;17.99;67.20;97813.59;4485772;32;20068;-84
2022/09/30 06:53:52;;;;;;;10.45;4.22;;;;;;;18.01;67.20;97812.41;4471966;32;20108;-83
2022/09/30 06:56:18;;;;;;;10.27;4.37;;;;;;;18.05;67.16;97828.94;4474029;32;20159;-84
2022/09/30 06:58:44;;;;;;;10.95;4.80;;;;;;;18.06;67.09;97830.63;4487864;32;20092;-83
2022/09/30 07:01:12;;;;;;;11.05;4.65;;;;;;;18.10;66.99;97834.66;4470580;32;20084;-84
2022/09/30 07:03:37;;;;;;;10.20;4.70;;;;;;;17.83;67.58;97839.06;4455419;32;20132;-84
2022/09/30 07:06:04;;;;;;;9.10;3.75;;;;;;;17.95;67.46;97828.22;4471903;32;20084;-83
2022/09/30 07:08:31;;;;;;;10.13;3.43;;;;;;;18.03;67.26;97837.09;4472161;32;20140;-84
2022/09/30 07:11:03;;;;;;;10.75;3.78;;;;;;;18.00;67.42;97840.09;4472003;32;20256;-85
2022/09/30 07:13:28;;;;;;;11.15;4.37;;;;;;;18.08;67.14;97842.81;4471955;32;20113;-84
2022/09/30 07:15:55;;;;;;;9.32;3.80;;;;;;;18.12;67.01;97854.00;4471994;32;20096;-84
2022/09/30 07:18:26;;;;;;;8.73;3.65;;;;;;;18.09;67.10;97856.97;4472164;32;20095;-84
2022/09/30 07:20:53;;;;;;;8.77;3.22;;;;;;;18.15;67.06;97856.34;4471985;32;20136;-84
2022/09/30 07:23:19;;;;;;;8.25;3.22;;;;;;;18.18;67.01;97853.38;4471826;32;20146;-83
2022/09/30 07:25:55;;;;;;;8.93;3.42;;;;;;;18.18;66.98;97858.72;4457955;32;20132;-83
2022/09/30 07:28:26;;;;;;;8.75;3.53;;;;;;;18.27;66.75;97854.25;4457880;32;20093;-90
2022/09/30 07:30:55;;;;;;;8.75;3.35;;;;;;;18.25;66.81;97856.25;4445164;32;20539;-85
2022/09/30 07:33:21;;;;;;;10.68;4.57;;;;;;;18.26;66.81;97853.44;4471949;32;20455;-86
2022/09/30 07:35:54;;;;;;;11.60;4.97;;;;;;;18.28;66.72;97858.59;4471782;32;20437;-82
2022/09/30 07:38:20;;;;;;;12.93;5.45;;;;;;;18.38;66.23;97867.34;4456722;32;20101;-82
2022/09/30 07:41:01;;;;;;;12.02;5.82;;;;;;;18.35;66.49;97867.66;4471635;32;20408;-82
2022/09/30 07:43:33;;;;;;;13.60;6.15;;;;;;;18.37;66.50;97878.16;4471815;32;20119;-82
2022/09/30 07:46:12;;;;;;;13.75;6.45;;;;;;;18.37;66.62;97878.16;4471931;32;20131;-82
2022/09/30 07:48:45;;;;;;;12.25;5.93;;;;;;;18.43;66.74;97880.22;4457688;32;20169;-82
2022/09/30 07:51:16;;;;;;;13.98;6.97;;;;;;;18.43;66.70;97883.72;4471929;32;20175;-82
2022/09/30 07:53:43;;;;;;;13.68;6.93;;;;;;;18.57;66.57;97884.16;4471885;32;20135;-82
2022/09/30 07:56:09;;;;;;;13.82;7.00;;;;;;;18.65;66.57;97886.88;4457854;32;20792;-82
2022/09/30 07:58:35;;;;;;;13.45;7.15;;;;;;;18.71;66.27;97890.75;4471640;32;20085;-82
2022/09/30 08:01:01;;;;;;;13.18;6.55;;;;;;;18.73;66.20;97891.41;4457544;32;20111;-82
2022/09/30 08:03:27;;;;;;;13.30;6.72;;;;;;;18.80;65.80;97895.16;4457682;32;20135;-82
2022/09/30 08:05:52;;;;;;;13.38;6.47;;;;;;;18.57;66.67;97905.50;4470617;32;20100;-82
2022/09/30 08:08:18;;;;;;;13.20;6.18;;;;;;;18.44;67.04;97896.03;4457447;32;20116;-82
2022/09/30 08:10:43;;;;;;;12.98;6.57;;;;;;;18.43;67.58;97896.22;4471989;32;20404;-82
2022/09/30 08:13:12;;;;;;;11.88;5.60;;;;;;;18.64;67.03;97896.69;4471800;32;20093;-82
2022/09/30 08:15:38;;;;;;;11.98;6.20;;;;;;;19.02;65.72;97891.94;4458292;32;20468;-82
2022/09/30 08:18:03;;;;;;;11.02;5.18;;;;;;;19.17;65.22;97899.34;4472005;32;20088;-82
2022/09/30 08:20:30;;;;;;;13.00;5.62;;;;;;;19.28;64.77;97904.41;4471872;32;20130;-82
2022/09/30 08:22:57;;;;;;;11.70;5.47;;;;;;;19.24;64.80;97909.25;4471695;32;20670;-82
2022/09/30 08:25:23;;;;;;;12.00;5.75;;;;;;;19.38;64.12;97913.13;4471594;32;20123;-83
2022/09/30 08:27:48;;;;;;;12.95;6.47;;;;;;;19.12;64.72;97912.34;4471963;32;20480;-82
2022/09/30 08:30:13;;;;;;;13.90;6.93;;;;;;;19.41;63.67;97919.97;4471799;32;20216;-82
2022/09/30 08:32:39;;;;;;;13.48;7.50;;;;;;;19.39;63.60;97929.97;4457520;32;20105;-82
2022/09/30 08:35:05;;;;;;;12.82;6.97;;;;;;;19.35;63.56;97926.78;4471902;32;20088;-82
2022/09/30 08:37:31;;;;;;;13.30;7.47;;;;;;;19.48;63.12;97928.19;4471723;32;20151;-82
2022/09/30 08:39:56;;;;;;;14.43;8.10;;;;;;;19.46;62.99;97936.37;4471745;32;20089;-82
2022/09/30 08:42:29;;;;;;;17.30;8.90;;;;;;;19.02;64.45;97934.63;4457610;32;20460;-82
2022/09/30 08:45:06;;;;;;;17.95;9.30;;;;;;;19.27;64.13;97936.63;4471532;32;20120;-82
2022/09/30 08:47:46;;;;;;;15.63;8.88;;;;;;;19.48;63.59;97939.72;4457428;32;20387;-83
2022/09/30 08:50:30;;;;;;;15.25;8.85;;;;;;;19.34;63.98;97948.34;4471312;32;20414;-82
2022/09/30 08:53:01;;;;;;;15.98;9.50;;;;;;;19.38;63.59;97957.69;4471517;32;20105;-82
2022/09/30 08:55:32;;;;;;;15.95;9.02;;;;;;;18.75;66.13;97959.63;4471385;32;20138;-82
2022/09/30 08:57:58;;;;;;;15.38;8.93;;;;;;;18.85;65.31;97967.56;4457152;32;20093;-83
2022/09/30 09:00:23;;;;;;;15.50;8.98;;;;;;;18.40;67.25;97966.69;4457111;32;20085;-82
2022/09/30 09:02:50;;;;;;;14.73;9.40;;;;;;;18.53;66.74;97970.81;4457270;32;20117;-82
2022/09/30 09:05:47;;;;;;;14.75;9.07;;;;;;;18.27;67.76;97959.09;4457186;32;20112;-83
2022/09/30 09:08:39;;;;;;;14.05;8.10;;;;;;;18.93;65.75;97967.63;4453618;32;20131;-83
2022/09/30 09:11:14;;;;;;;12.90;7.47;;;;;;;18.74;67.11;97955.28;4456937;32;20097;-82
2022/09/30 09:13:51;;;;;;;12.18;6.78;;;;;;;19.00;66.97;97962.50;4471284;32;20181;-83
2022/09/30 09:16:29;;;;;;;11.50;6.18;;;;;;;19.16;66.55;97962.59;4457067;32;20168;-82
2022/09/30 09:19:00;;;;;;;10.73;5.50;;;;;;;19.32;66.42;97961.03;4456962;32;20088;-82
2022/09/30 09:21:43;;;;;;;10.30;4.70;;;;;;;19.83;64.20;97959.22;4471291;32;20092;-83
2022/09/30 09:24:19;;;;;;;10.38;4.90;;;;;;;19.46;65.24;97965.75;4471021;32;20149;-82
2022/09/30 09:26:45;;;;;;;9.73;4.03;;;;;;;20.06;63.73;97974.66;4457149;32;20127;-82
2022/09/30 09:29:32;;;;;;;9.20;3.95;;;;;;;20.17;62.91;97971.69;4471088;32;20084;-83
2022/09/30 09:31:58;;;;;;;8.30;3.35;;;;;;;19.94;62.44;97979.47;4471182;32;20106;-82
2022/09/30 09:34:25;;;;;;;8.73;3.12;;;;;;;19.76;63.24;97980.44;4469807;32;20411;-82
2022/09/30 09:38:23;;;;;;;8.80;3.28;;;;;;;20.18;62.61;97981.34;4456977;32;20105;-82
2022/09/30 09:40:34;;;;;;;7.37;2.97;;;;;;;20.23;61.18;97997.75;4422119;32;20112;-82
2022/09/30 09:43:12;;;;;;;7.20;2.60;;;;;;;20.50;61.54;97993.94;4422361;32;20089;-82
2022/09/30 09:45:49;;;;;;;6.00;2.35;;;;;;;20.45;61.85;97998.13;4422406;32;20090;-82
2022/09/30 09:48:15;;;;;;;6.22;2.00;;;;;;;20.71;61.71;97998.00;4422426;32;20127;-82
2022/09/30 09:50:47;;;;;;;4.87;1.52;;;;;;;20.71;61.26;98003.34;4422177;32;20150;-83
2022/09/30 09:53:24;;;;;;;4.43;1.83;;;;;;;20.54;61.62;98000.62;4422230;32;20171;-82
2022/09/30 09:55:54;;;;;;;2.35;1.20;;;;;;;20.76;61.39;97996.47;4422182;32;20648;-82
2022/09/30 09:58:20;;;;;;;4.45;1.50;;;;;;;20.85;60.30;98000.00;4422043;32;20124;-83
2022/09/30 10:03:17;;;;;;;5.50;1.30;;;;;;;21.12;59.93;98014.03;4422009;32;20093;-83
2022/09/30 10:05:42;;;;;;;4.00;1.23;;;;;;;21.06;59.87;98020.06;4422119;32;20639;-83
2022/09/30 10:08:19;;;;;;;2.25;1.10;;;;;;;21.64;58.83;98018.94;4421903;32;20113;-83
2022/09/30 10:10:49;;;;;;;2.75;1.10;;;;;;;21.12;58.91;98009.50;4422086;32;20215;-83
2022/09/30 10:13:22;;;;;;;3.03;1.37;;;;;;;21.27;59.42;98016.84;4409141;32;20112;-83
2022/09/30 10:15:50;;;;;;;3.30;1.10;;;;;;;21.61;58.18;98019.28;4444763;32;20178;-83
2022/09/30 10:18:16;;;;;;;;;;;;;;;21.37;59.04;98012.13;4456570;32;20096;-83
2022/09/30 10:20:49;;;;;;;2.80;1.15;;;;;;;21.52;58.24;98007.78;4469449;32;19996;-82
2022/09/30 10:23:28;;;;;;;2.53;1.10;;;;;;;21.73;58.24;98007.19;4470245;32;20107;-82
2022/09/30 10:26:09;;;;;;;3.62;1.42;;;;;;;21.37;59.19;98018.31;4470553;32;20093;-83
2022/09/30 10:28:45;;;;;;;4.20;1.48;;;;;;;21.60;57.84;98023.00;4443224;32;20127;-82
2022/09/30 10:31:20;;;;;;;2.72;1.15;;;;;;;21.47;58.41;98028.88;4472498;32;20104;-82
2022/09/30 10:33:48;;;;;;;2.45;1.17;;;;;;;21.79;57.36;98021.75;4458374;32;20119;-82
2022/09/30 10:36:16;;;;;;;3.97;1.40;;;;;;;21.53;57.33;98036.22;4458285;32;20097;-83
2022/09/30 10:38:56;;;;;;;3.30;1.30;;;;;;;21.34;57.65;98039.25;4472260;32;20482;-82
2022/09/30 10:41:27;;;;;;;3.45;1.37;;;;;;;21.38;58.45;98041.44;4458318;32;20467;-82
2022/09/30 10:43:56;;;;;;;2.80;1.30;;;;;;;21.17;58.89;98046.47;4458110;32;20089;-82
2022/09/30 10:46:39;;;;;;;3.42;1.30;;;;;;;21.35;58.23;98047.13;4458144;32;20104;-82
2022/09/30 10:49:27;;;;;;;3.58;1.20;;;;;;;20.97;59.67;98051.34;4445566;32;20508;-82
2022/09/30 10:51:58;;;;;;;3.20;1.15;;;;;;;21.14;59.24;98053.03;4458374;32;20097;-82
2022/09/30 10:54:38;;;;;;;2.05;1.20;;;;;;;21.47;58.72;98052.16;4471285;32;20096;-83
2022/09/30 10:57:08;;;;;;;2.33;1.12;;;;;;;21.58;57.77;98054.50;4472142;32;20361;-83
2022/09/30 10:59:37;;;;;;;1.95;1.02;;;;;;;21.70;57.44;98055.78;4457958;32;20456;-82
2022/09/30 11:02:12;;;;;;;2.62;1.08;;;;;;;21.70;57.85;98068.34;4472087;32;20088;-82
2022/09/30 11:04:55;;;;;;;3.53;1.27;;;;;;;21.74;58.25;98075.03;4472225;32;20101;-83
2022/09/30 11:07:38;;;;;;;2.15;1.05;;;;;;;22.35;57.37;98080.69;4458139;32;20213;-83
2022/09/30 11:10:19;;;;;;;2.75;1.27;;;;;;;22.08;57.35;98096.22;4458007;32;20088;-83
2022/09/30 11:13:08;;;;;;;3.92;1.30;;;;;;;21.49;57.83;98098.38;4472186;32;20137;-83
2022/09/30 11:15:48;;;;;;;3.12;1.25;;;;;;;21.60;58.43;98104.22;4423543;32;20104;-82
2022/09/30 11:18:21;;;;;;;8.52;1.73;;;;;;;21.31;58.98;98109.28;4410596;32;20094;-83
2022/09/30 11:20:54;;;;;;;2.60;1.23;;;;;;;21.49;58.72;98125.19;4423480;32;20129;-83
2022/09/30 11:23:37;;;;;;;3.60;1.33;;;;;;;20.99;60.27;98133.19;4410967;32;20173;-82
2022/09/30 11:26:02;;;;;;;5.95;1.33;;;;;;;21.20;59.15;98142.59;4410985;32;20085;-83
2022/09/30 11:28:37;;;;;;;2.28;1.23;;;;;;;21.37;58.38;98138.06;4423295;32;20160;-82
2022/09/30 11:31:23;;;;;;;3.70;1.33;;;;;;;21.38;59.02;98148.63;4410734;32;20102;-83
2022/09/30 11:33:59;;;;;;;4.40;1.20;;;;;;;21.30;59.29;98158.47;4423289;32;20120;-83
2022/09/30 11:36:41;;;;;;;3.65;1.40;;;;;;;20.31;61.73;98168.94;4410635;32;20109;-82
2022/09/30 11:39:16;;;;;;;3.75;1.50;;;;;;;20.17;61.94;98165.06;4423253;32;20134;-83
2022/09/30 11:41:59;;;;;;;3.85;1.30;;;;;;;19.97;62.32;98168.94;4422343;32;20129;-83
2022/09/30 11:44:35;;;;;;;3.90;1.40;;;;;;;19.63;63.21;98175.06;4423427;32;20115;-83
2022/09/30 11:47:10;;;;;;;4.00;1.40;;;;;;;19.80;62.99;98176.88;4410267;32;20094;-83
2022/09/30 11:49:41;;;;;;;4.43;1.15;;;;;;;20.13;61.73;98169.03;4423307;32;20102;-83
2022/09/30 11:52:20;;;;;;;2.85;1.25;;;;;;;20.35;61.22;98175.66;4436404;32;20097;-83